Time;durP1;ratioP1;P1;durP2;ratioP2;P2;SDS_P1;SDS_P2;PMS_P1;PMS_P2;Temp;Humidity;BMP_temperature;BMP_pressure;BME280_temperature;BME280_humidity;BME280_pressure;Samples;Min_cycle;Max_cycle;Signal;HPM_P1;HPM_P2
2020/12/17 00:00:00;;;;;;;12.30;9.80;;;;;;;;;;5093590;28;20029;-57
2020/12/17 00:02:38;;;;;;;11.67;9.97;;;;;;;;;;5016307;28;20029;-58
2020/12/17 00:06:00;;;;;;;11.83;10.67;;;;;;;;;;5032626;28;20033;-58
2020/12/17 00:08:54;;;;;;;12.57;11.00;;;;;;;;;;5021336;28;20042;-58
2020/12/17 00:11:26;;;;;;;14.10;11.83;;;;;;;;;;5094725;28;20031;-57
2020/12/17 00:14:11;;;;;;;13.70;10.90;;;;;;;;;;5095253;28;20500;-58
2020/12/17 00:17:30;;;;;;;12.50;10.70;;;;;;;;;;5093677;28;20036;-56
2020/12/17 00:19:49;;;;;;;13.73;11.77;;;;;;;;;;5080936;28;20032;-58
2020/12/17 00:25:59;;;;;;;15.37;11.67;;;;;;;;;;5094389;28;20359;-55
2020/12/17 00:28:26;;;;;;;11.50;10.27;;;;;;;;;;5094179;28;20195;-56
2020/12/17 00:30:59;;;;;;;12.30;11.10;;;;;;;;;;5094593;28;20035;-58
2020/12/17 00:33:32;;;;;;;13.63;12.23;;;;;;;;;;5098604;28;20024;-57
2020/12/17 00:36:01;;;;;;;13.00;10.93;;;;;;;;;;5080663;28;20028;-58
2020/12/17 00:38:58;;;;;;;12.23;10.77;;;;;;;;;;5097803;28;20020;-57
2020/12/17 00:41:25;;;;;;;14.67;11.47;;;;;;;;;;5086709;28;20044;-58
2020/12/17 00:43:55;;;;;;;11.53;10.30;;;;;;;;;;5079661;28;20034;-57
2020/12/17 00:49:28;;;;;;;14.93;11.80;;;;;;;;;;5094642;28;20032;-57
2020/12/17 00:52:03;;;;;;;13.40;9.98;;;;;;;;;;5098346;28;20028;-57
2020/12/17 00:54:39;;;;;;;11.37;10.17;;;;;;;;;;5098457;28;20078;-58
2020/12/17 01:00:52;;;;;;;17.93;12.00;;;;;;;;;;5097357;28;20389;-57
2020/12/17 01:12:15;;;;;;;13.97;11.57;;;;;;;;;;5098148;28;20039;-57
2020/12/17 01:15:00;;;;;;;14.00;12.40;;;;;;;;;;5098573;28;20036;-55
2020/12/17 01:17:38;;;;;;;18.43;12.43;;;;;;;;;;5097652;28;20028;-57
2020/12/17 01:20:50;;;;;;;16.60;11.93;;;;;;;;;;5097543;28;20020;-57
2020/12/17 01:23:19;;;;;;;;;;;;;;;;;;5056038;28;20032;-58
2020/12/17 01:26:15;;;;;;;14.77;12.47;;;;;;;;;;5054911;28;19905;-56
2020/12/17 01:29:02;;;;;;;12.87;11.57;;;;;;;;;;5054619;28;20025;-58
2020/12/17 01:31:59;;;;;;;;;;;;;;;;;;;;;
2020/12/17 01:34:39;;;;;;;15.30;12.40;;;;;;;;;;5087982;28;20028;-57
2020/12/17 01:37:21;;;;;;;14.90;13.30;;;;;;;;;;5097194;28;20034;-57
2020/12/17 01:40:13;;;;;;;14.83;13.33;;;;;;;;;;5097212;28;20036;-58
2020/12/17 01:42:48;;;;;;;14.10;11.33;;;;;;;;;;5087189;28;20117;-58
2020/12/17 01:45:55;;;;;;;15.83;12.97;;;;;;;;;;5097426;28;20366;-58
2020/12/17 01:48:42;;;;;;;12.67;11.23;;;;;;;;;;5097686;28;20039;-55
2020/12/17 01:51:37;;;;;;;14.40;12.27;;;;;;;;;;5096857;28;20036;-55
2020/12/17 01:54:16;;;;;;;11.93;10.70;;;;;;;;;;5096060;28;20105;-56
2020/12/17 01:56:47;;;;;;;15.43;11.57;;;;;;;;;;5097412;28;20028;-57
2020/12/17 01:59:29;;;;;;;13.57;12.17;;;;;;;;;;5097587;28;20074;-57
2020/12/17 02:02:06;;;;;;;15.33;13.10;;;;;;;;;;5097557;28;20044;-57
2020/12/17 02:07:30;;;;;;;14.23;11.47;;;;;;;;;;5096839;28;20031;-57
2020/12/17 02:10:12;;;;;;;14.43;11.87;;;;;;;;;;5096914;28;20051;-55
2020/12/17 02:13:08;;;;;;;12.50;10.27;;;;;;;;;;5096894;28;20042;-57
2020/12/17 02:15:53;;;;;;;11.07;9.80;;;;;;;;;;5096988;28;20028;-58
2020/12/17 02:18:32;;;;;;;12.90;11.43;;;;;;;;;;5096457;28;20020;-56
2020/12/17 02:21:12;;;;;;;16.10;10.90;;;;;;;;;;5096957;28;20031;-57
2020/12/17 02:23:39;;;;;;;11.97;10.73;;;;;;;;;;5096995;28;20383;-56
2020/12/17 02:26:28;;;;;;;14.47;11.03;;;;;;;;;;5076024;28;20040;-57
2020/12/17 02:29:30;;;;;;;10.63;9.40;;;;;;;;;;5084753;28;20324;-56
2020/12/17 02:32:15;;;;;;;;;;;;;;;;;;;;;
2020/12/17 02:34:45;;;;;;;14.20;11.83;;;;;;;;;;5093152;28;20047;-57
2020/12/17 02:37:26;;;;;;;11.60;10.03;;;;;;;;;;5096736;28;20035;-58
2020/12/17 02:43:14;;;;;;;14.10;10.47;;;;;;;;;;5014299;28;20072;-57
2020/12/17 02:45:52;;;;;;;12.27;10.20;;;;;;;;;;5014693;28;20035;-57
2020/12/17 02:48:34;;;;;;;9.60;8.20;;;;;;;;;;5093295;28;20484;-58
2020/12/17 02:51:16;;;;;;;10.03;8.80;;;;;;;;;;5093742;28;20028;-57
2020/12/17 02:54:14;;;;;;;;;;;;;;;;;;;;;
2020/12/17 02:56:51;;;;;;;12.10;9.60;;;;;;;;;;5093672;28;20166;-57
2020/12/17 02:59:26;;;;;;;12.33;9.47;;;;;;;;;;5097090;28;20020;-56
2020/12/17 03:02:20;;;;;;;12.10;9.67;;;;;;;;;;5096615;28;20024;-57
2020/12/17 03:05:12;;;;;;;10.67;9.10;;;;;;;;;;5078496;28;20450;-56
2020/12/17 03:07:57;;;;;;;12.43;10.23;;;;;;;;;;5074746;28;20028;-57
2020/12/17 03:10:41;;;;;;;11.87;9.27;;;;;;;;;;5095847;28;20106;-55
2020/12/17 03:13:37;;;;;;;11.00;9.23;;;;;;;;;;5077766;28;20060;-57
2020/12/17 03:16:09;;;;;;;11.13;7.97;;;;;;;;;;5095649;28;20477;-55
2020/12/17 03:19:01;;;;;;;13.70;10.23;;;;;;;;;;5096632;28;20396;-57
2020/12/17 03:24:57;;;;;;;9.53;8.53;;;;;;;;;;5096340;28;20047;-57
2020/12/17 03:27:30;;;;;;;10.68;9.32;;;;;;;;;;5096172;28;20415;-57
2020/12/17 03:30:01;;;;;;;14.53;10.13;;;;;;;;;;5078453;28;20024;-57
2020/12/17 03:32:31;;;;;;;9.43;8.40;;;;;;;;;;5097361;28;20031;-58
2020/12/17 03:35:41;;;;;;;12.43;10.50;;;;;;;;;;5098180;28;20024;-57
2020/12/17 03:38:16;;;;;;;14.17;9.73;;;;;;;;;;5087691;28;20058;-57
2020/12/17 03:41:09;;;;;;;9.93;8.47;;;;;;;;;;5079108;28;20032;-57
2020/12/17 03:46:45;;;;;;;9.47;8.33;;;;;;;;;;5096748;28;20066;-54
2020/12/17 03:49:25;;;;;;;8.53;7.67;;;;;;;;;;5096389;28;20031;-58
2020/12/17 03:55:10;;;;;;;;;;;;;;;;;;;;;
2020/12/17 03:57:43;;;;;;;10.47;9.37;;;;;;;;;;5095004;28;20100;-57
2020/12/17 04:03:26;;;;;;;11.00;9.90;;;;;;;;;;5033707;28;20036;-56
2020/12/17 04:06:01;;;;;;;11.43;10.07;;;;;;;;;;5096320;28;20360;-57
2020/12/17 04:08:50;;;;;;;13.13;10.20;;;;;;;;;;5081216;28;20055;-57
2020/12/17 04:11:43;;;;;;;;;;;;;;;;;;;;;
2020/12/17 04:14:24;;;;;;;10.70;8.87;;;;;;;;;;5100348;28;20119;-56
2020/12/17 04:17:30;;;;;;;;;;;;;;;;;;;;;
2020/12/17 04:20:23;;;;;;;10.77;8.53;;;;;;;;;;5099767;28;20115;-54
2020/12/17 04:23:06;;;;;;;8.90;7.87;;;;;;;;;;5100505;28;20028;-57
2020/12/17 04:25:59;;;;;;;10.63;8.80;;;;;;;;;;5100500;28;20048;-55
2020/12/17 04:28:51;;;;;;;;;;;;;;;;;;;;;
2020/12/17 04:31:43;;;;;;;11.00;9.63;;;;;;;;;;5098060;28;20020;-57
2020/12/17 04:34:27;;;;;;;8.03;7.03;;;;;;;;;;5097205;28;20028;-55
2020/12/17 04:36:59;;;;;;;11.03;9.70;;;;;;;;;;5097315;28;20077;-57
2020/12/17 04:39:54;;;;;;;;;;;;;;;;;;;;;
2020/12/17 04:42:36;;;;;;;;;;;;;;;;;;;;;
2020/12/17 04:45:19;;;;;;;;;;;;;;;;;;;;;
2020/12/17 04:48:07;;;;;;;9.00;8.10;;;;;;;;;;5097823;28;20035;-57
2020/12/17 04:50:52;;;;;;;10.00;8.97;;;;;;;;;;5094713;28;20032;-57
2020/12/17 04:53:36;;;;;;;12.10;9.13;;;;;;;;;;5069644;28;20470;-57
2020/12/17 04:59:24;;;;;;;9.83;8.87;;;;;;;;;;5065249;28;20031;-56
2020/12/17 05:02:08;;;;;;;10.10;8.50;;;;;;;;;;5078153;28;20481;-56
2020/12/17 05:04:58;;;;;;;10.33;8.67;;;;;;;;;;5077985;28;20429;-57
2020/12/17 05:07:52;;;;;;;10.82;8.35;;;;;;;;;;5094280;28;20039;-57
2020/12/17 05:10:52;;;;;;;10.17;7.63;;;;;;;;;;5093968;28;20055;-56
2020/12/17 05:13:28;;;;;;;10.77;9.75;;;;;;;;;;5090146;28;20032;-57
2020/12/17 05:16:17;;;;;;;;;;;;;;;;;;;;;
2020/12/17 05:22:01;;;;;;;13.60;9.70;;;;;;;;;;5096454;28;20409;-57
2020/12/17 05:33:57;;;;;;;10.73;8.33;;;;;;;;;;5035737;28;20418;-57
2020/12/17 05:36:25;;;;;;;13.87;9.63;;;;;;;;;;5034885;28;20091;-57
2020/12/17 05:39:02;;;;;;;10.30;8.70;;;;;;;;;;5036623;28;20526;-58
2020/12/17 05:42:03;;;;;;;;;;;;;;;;;;;;;
2020/12/17 05:44:48;;;;;;;11.70;9.73;;;;;;;;;;5036822;28;20096;-56
2020/12/17 05:47:23;;;;;;;10.67;9.57;;;;;;;;;;4996908;28;20030;-57
2020/12/17 05:50:12;;;;;;;;;;;;;;;;;;;;;
2020/12/17 05:52:50;;;;;;;9.43;8.30;;;;;;;;;;4996736;28;20117;-57
2020/12/17 05:55:42;;;;;;;11.30;9.60;;;;;;;;;;4996778;28;20035;-56
2020/12/17 05:58:28;;;;;;;10.93;9.10;;;;;;;;;;4961112;28;20093;-56
2020/12/17 06:01:27;;;;;;;11.83;9.40;;;;;;;;;;4996706;28;20042;-57
2020/12/17 06:04:05;;;;;;;11.43;9.83;;;;;;;;;;4995612;28;20037;-57
2020/12/17 06:10:06;;;;;;;11.23;8.43;;;;;;;;;;5067177;28;20419;-57
2020/12/17 06:12:38;;;;;;;10.77;9.70;;;;;;;;;;5075575;28;20052;-57
2020/12/17 06:15:06;;;;;;;;;;;;;;;;;;5076583;28;20158;-57
2020/12/17 06:18:05;;;;;;;;;;;;;;;;;;;;;
2020/12/17 06:20:51;;;;;;;13.97;10.50;;;;;;;;;;5096349;28;20030;-57
2020/12/17 06:27:04;;;;;;;12.23;9.00;;;;;;;;;;5077953;28;20141;-57
2020/12/17 06:30:16;;;;;;;;;;;;;;;;;;;;;
2020/12/17 06:33:03;;;;;;;12.00;9.93;;;;;;;;;;5096149;28;20457;-56
2020/12/17 06:38:54;;;;;;;;;;;;;;;;;;;;;
2020/12/17 06:41:39;;;;;;;12.80;10.50;;;;;;;;;;5096029;28;20107;-56
2020/12/17 06:47:57;;;;;;;17.57;10.97;;;;;;;;;;5062927;28;20032;-55
2020/12/17 06:50:47;;;;;;;15.95;11.32;;;;;;;;;;5096956;28;20040;-57
2020/12/17 06:53:59;;;;;;;;;;;;;;;;;;;;;
2020/12/17 06:56:58;;;;;;;10.37;8.87;;;;;;;;;;5031587;28;20276;-55
2020/12/17 06:59:34;;;;;;;13.87;11.23;;;;;;;;;;5096176;28;20070;-54
2020/12/17 07:02:20;;;;;;;15.60;11.37;;;;;;;;;;5096699;28;20024;-58
2020/12/17 07:08:23;;;;;;;;;;;;;;;;;;;;;
2020/12/17 07:11:16;;;;;;;16.67;10.57;;;;;;;;;;5015169;28;20140;-56
2020/12/17 07:13:55;;;;;;;12.17;10.87;;;;;;;;;;5033700;28;20430;-55
2020/12/17 07:16:26;;;;;;;10.80;9.13;;;;;;;;;;5086745;28;20035;-57
2020/12/17 07:19:10;;;;;;;;;;;;;;;;;;5097099;28;20020;-56
2020/12/17 07:22:11;;;;;;;10.90;8.50;;;;;;;;;;5097307;28;19927;-57
2020/12/17 07:31:07;;;;;;;;;;;;;;;;;;;;;
2020/12/17 07:37:04;;;;;;;14.48;10.85;;;;;;;;;;5014179;28;20026;-56
2020/12/17 07:42:45;;;;;;;13.37;11.47;;;;;;;;;;5098827;28;20114;-56
2020/12/17 07:45:38;;;;;;;19.57;10.63;;;;;;;;;;5083029;28;20024;-57
2020/12/17 07:48:25;;;;;;;12.70;11.30;;;;;;;;;;5100078;28;20119;-57
2020/12/17 07:50:57;;;;;;;10.50;9.40;;;;;;;;;;5018209;28;20112;-55
2020/12/17 07:53:46;;;;;;;13.00;10.87;;;;;;;;;;5092036;28;20453;-56
2020/12/17 07:56:41;;;;;;;11.97;9.77;;;;;;;;;;5101765;28;20028;-56
2020/12/17 08:02:39;;;;;;;15.67;10.80;;;;;;;;;;5015890;28;20037;-53
2020/12/17 08:05:18;;;;;;;11.30;10.03;;;;;;;;;;5090627;28;20478;-54
2020/12/17 08:07:54;;;;;;;11.93;10.10;;;;;;;;;;5077030;28;20064;-57
2020/12/17 08:14:15;;;;;;;22.58;10.90;;;;;;;;;;5077131;28;20493;-57
2020/12/17 08:17:18;;;;;;;13.27;10.43;;;;;;;;;;5097080;28;20025;-57
2020/12/17 08:23:03;;;;;;;;;;;;;;;;;;;;;
2020/12/17 08:25:44;;;;;;;9.77;8.82;;;;;;;;;;5077303;28;20388;-56
2020/12/17 08:28:17;;;;;;;;;;;;;;;;;;5074539;28;20118;-56
2020/12/17 08:34:12;;;;;;;12.20;8.60;;;;;;;;;;5015091;28;20045;-53
2020/12/17 08:37:19;;;;;;;11.80;9.97;;;;;;;;;;5074273;28;20039;-54
2020/12/17 08:40:31;;;;;;;12.47;8.70;;;;;;;;;;5015085;28;20585;-56
2020/12/17 08:43:23;;;;;;;10.80;9.03;;;;;;;;;;5014806;28;20026;-54
2020/12/17 08:46:18;;;;;;;;;;;;;;;;;;;;;
2020/12/17 08:48:57;;;;;;;9.80;8.40;;;;;;;;;;5068728;28;20043;-55
2020/12/17 08:51:45;;;;;;;13.37;9.87;;;;;;;;;;5058243;28;20024;-57
2020/12/17 08:54:39;;;;;;;8.13;7.30;;;;;;;;;;5060699;28;20044;-55
2020/12/17 09:00:22;;;;;;;8.70;7.90;;;;;;;;;;5060864;28;20101;-54
2020/12/17 09:03:19;;;;;;;9.47;6.97;;;;;;;;;;5094652;28;20421;-57
2020/12/17 09:06:09;;;;;;;13.52;9.07;;;;;;;;;;5095553;28;20028;-58
2020/12/17 09:08:50;;;;;;;9.18;7.65;;;;;;;;;;5096294;28;20077;-57
2020/12/17 09:11:54;;;;;;;;;;;;;;;;;;;;;
2020/12/17 09:14:28;;;;;;;8.73;7.87;;;;;;;;;;5080380;28;20040;-57
2020/12/17 09:20:25;;;;;;;9.05;6.53;;;;;;;;;;5014230;28;20552;-59
2020/12/17 09:23:10;;;;;;;7.93;7.23;;;;;;;;;;4997806;28;20097;-58
2020/12/17 09:26:01;;;;;;;7.75;6.95;;;;;;;;;;4998304;28;20108;-56
2020/12/17 09:31:33;;;;;;;8.17;7.23;;;;;;;;;;5096204;28;20036;-58
2020/12/17 09:34:32;;;;;;;7.43;6.72;;;;;;;;;;5097068;28;20032;-59
2020/12/17 09:37:17;;;;;;;7.03;6.27;;;;;;;;;;5094982;28;20034;-58
2020/12/17 09:40:15;;;;;;;7.70;5.97;;;;;;;;;;5093325;28;20054;-58
2020/12/17 09:48:31;;;;;;;9.70;7.93;;;;;;;;;;5095993;28;20031;-57
2020/12/17 09:54:12;;;;;;;9.93;6.40;;;;;;;;;;5081403;28;19908;-58
2020/12/17 09:57:02;;;;;;;8.03;6.30;;;;;;;;;;5096289;28;20020;-57
2020/12/17 09:59:50;;;;;;;9.37;7.13;;;;;;;;;;5094328;28;20141;-56
2020/12/17 10:02:19;;;;;;;7.13;6.15;;;;;;;;;;5093485;28;20032;-57
2020/12/17 10:05:01;;;;;;;8.32;5.78;;;;;;;;;;5094379;28;20017;-57
2020/12/17 10:07:49;;;;;;;6.82;5.68;;;;;;;;;;5095088;28;20474;-59
2020/12/17 10:10:41;;;;;;;10.45;7.13;;;;;;;;;;5095373;28;20068;-57
2020/12/17 10:13:15;;;;;;;6.05;5.40;;;;;;;;;;5094017;28;20399;-58
2020/12/17 10:15:59;;;;;;;5.15;4.65;;;;;;;;;;5095668;28;20047;-59
2020/12/17 10:18:40;;;;;;;5.15;4.63;;;;;;;;;;5095093;28;20023;-59
2020/12/17 10:21:26;;;;;;;5.82;5.22;;;;;;;;;;5095912;28;20027;-58
2020/12/17 10:24:10;;;;;;;5.60;4.25;;;;;;;;;;5076770;28;20111;-58
2020/12/17 10:26:55;;;;;;;5.55;4.80;;;;;;;;;;5076765;28;20470;-57
2020/12/17 10:29:48;;;;;;;5.13;4.63;;;;;;;;;;5095128;28;20107;-57
2020/12/17 10:32:37;;;;;;;6.43;4.28;;;;;;;;;;5095333;28;20036;-57
2020/12/17 10:35:05;;;;;;;4.75;4.07;;;;;;;;;;5094677;28;20020;-55
2020/12/17 10:37:47;;;;;;;6.15;3.92;;;;;;;;;;5074794;28;20536;-58
2020/12/17 10:40:25;;;;;;;5.28;4.65;;;;;;;;;;5092877;28;20024;-57
2020/12/17 10:42:56;;;;;;;4.47;3.20;;;;;;;;;;5078577;28;20043;-58
2020/12/17 10:45:35;;;;;;;4.20;3.53;;;;;;;;;;5095653;28;20514;-57
2020/12/17 10:51:01;;;;;;;6.53;4.38;;;;;;;;;;5012612;28;20081;-58
2020/12/17 10:53:32;;;;;;;3.55;2.92;;;;;;;;;;5085478;28;20067;-57
2020/12/17 10:56:25;;;;;;;4.95;4.28;;;;;;;;;;5095486;28;20454;-58
2020/12/17 11:02:32;;;;;;;4.38;3.97;;;;;;;;;;5094600;28;20119;-55
2020/12/17 11:05:28;;;;;;;6.82;2.97;;;;;;;;;;5052668;28;20051;-58
2020/12/17 11:08:22;;;;;;;4.70;3.90;;;;;;;;;;5051433;28;20029;-58
2020/12/17 11:10:53;;;;;;;5.43;3.83;;;;;;;;;;5052336;28;20068;-58
2020/12/17 11:13:19;;;;;;;3.63;2.88;;;;;;;;;;5034093;28;20127;-58
2020/12/17 11:16:01;;;;;;;4.95;3.50;;;;;;;;;;5035751;28;20040;-56
2020/12/17 11:18:40;;;;;;;4.68;3.22;;;;;;;;;;5052606;28;20032;-58
2020/12/17 11:27:40;;;;;;;3.45;2.78;;;;;;;;;;5052513;28;20033;-53
2020/12/17 11:30:06;;;;;;;;;;;;;;;;;;5041524;28;20047;-57
2020/12/17 11:33:01;;;;;;;3.60;2.80;;;;;;;;;;5052010;28;19904;-57
2020/12/17 11:35:40;;;;;;;4.13;2.90;;;;;;;;;;5049321;28;20037;-59
2020/12/17 11:38:15;;;;;;;2.60;2.22;;;;;;;;;;5051866;28;20025;-58
2020/12/17 11:41:24;;;;;;;3.60;2.72;;;;;;;;;;5052300;28;20033;-58
2020/12/17 11:44:03;;;;;;;3.47;2.50;;;;;;;;;;5093656;28;20032;-59
2020/12/17 11:46:33;;;;;;;3.83;2.95;;;;;;;;;;5093785;28;20035;-56
2020/12/17 11:49:23;;;;;;;5.97;3.20;;;;;;;;;;5094113;28;20374;-56
2020/12/17 11:52:17;;;;;;;3.17;2.63;;;;;;;;;;5094662;28;20050;-55
2020/12/17 11:54:46;;;;;;;2.97;2.45;;;;;;;;;;5094091;28;20373;-55
2020/12/17 11:57:21;;;;;;;3.42;2.70;;;;;;;;;;5094081;28;20095;-56
2020/12/17 12:00:03;;;;;;;3.03;2.35;;;;;;;;;;5092149;28;20485;-57
2020/12/17 12:02:35;;;;;;;3.03;2.08;;;;;;;;;;5094554;28;20085;-56
2020/12/17 12:05:22;;;;;;;3.92;2.88;;;;;;;;;;5093492;28;20035;-56
2020/12/17 12:08:19;;;;;;;3.90;2.40;;;;;;;;;;5094582;28;20117;-57
2020/12/17 12:11:11;;;;;;;6.88;2.65;;;;;;;;;;5093246;28;20061;-54
2020/12/17 12:13:57;;;;;;;3.25;2.42;;;;;;;;;;5092100;28;20059;-56
2020/12/17 12:16:27;;;;;;;3.85;2.72;;;;;;;;;;5093832;28;20056;-55
2020/12/17 12:19:02;;;;;;;3.10;2.30;;;;;;;;;;5074732;28;20040;-54
2020/12/17 12:21:32;;;;;;;3.63;2.58;;;;;;;;;;5073515;28;20032;-54
2020/12/17 12:24:32;;;;;;;3.58;2.38;;;;;;;;;;5093677;28;20032;-56
2020/12/17 12:27:09;;;;;;;;;;;;;;;;;;;;;
2020/12/17 12:29:39;;;;;;;3.78;2.85;;;;;;;;;;5081923;28;20333;-54
2020/12/17 12:32:18;;;;;;;2.95;2.20;;;;;;;;;;5097230;28;20036;-57
2020/12/17 12:35:10;;;;;;;3.50;2.60;;;;;;;;;;5061907;28;20497;-57
2020/12/17 12:38:00;;;;;;;3.92;2.70;;;;;;;;;;5097621;28;20462;-57
2020/12/17 12:40:28;;;;;;;3.25;2.40;;;;;;;;;;5096389;28;20028;-57
2020/12/17 12:43:15;;;;;;;4.65;2.80;;;;;;;;;;5076352;28;20036;-56
2020/12/17 12:45:53;;;;;;;3.13;2.75;;;;;;;;;;5096819;28;20169;-56
2020/12/17 12:48:31;;;;;;;3.10;2.25;;;;;;;;;;5079331;28;20028;-56
2020/12/17 12:56:56;;;;;;;3.80;2.10;;;;;;;;;;5079160;28;20028;-56
2020/12/17 12:59:22;;;;;;;3.35;2.58;;;;;;;;;;5079166;28;20062;-58
2020/12/17 13:02:22;;;;;;;3.42;2.47;;;;;;;;;;5097129;28;20097;-58
2020/12/17 13:04:55;;;;;;;3.38;2.53;;;;;;;;;;5095937;28;20028;-58
2020/12/17 13:07:37;;;;;;;3.85;2.60;;;;;;;;;;5097055;28;20078;-57
2020/12/17 13:10:29;;;;;;;2.50;1.92;;;;;;;;;;5078524;28;20039;-57
2020/12/17 13:13:05;;;;;;;2.42;1.95;;;;;;;;;;5095007;28;20040;-57
2020/12/17 13:15:52;;;;;;;3.00;2.25;;;;;;;;;;5096777;28;20024;-58
2020/12/17 13:18:39;;;;;;;3.30;2.17;;;;;;;;;;5096668;28;20374;-58
2020/12/17 13:21:27;;;;;;;2.67;2.25;;;;;;;;;;5096709;28;20074;-57
2020/12/17 13:26:50;;;;;;;5.35;2.65;;;;;;;;;;5081736;28;20488;-58
2020/12/17 13:29:42;;;;;;;3.90;3.20;;;;;;;;;;5096315;28;20070;-58
2020/12/17 13:35:26;;;;;;;5.80;3.75;;;;;;;;;;5095864;28;20149;-58
2020/12/17 13:38:16;;;;;;;5.20;3.72;;;;;;;;;;5076997;28;20035;-56
2020/12/17 13:40:51;;;;;;;4.57;3.33;;;;;;;;;;5072072;28;20473;-58
2020/12/17 13:43:44;;;;;;;4.47;3.88;;;;;;;;;;5096174;28;20074;-56
2020/12/17 13:46:28;;;;;;;;;;;;;;;;;;;;;
2020/12/17 13:48:58;;;;;;;3.78;3.38;;;;;;;;;;5091459;28;20035;-58
2020/12/17 13:51:43;;;;;;;5.47;4.53;;;;;;;;;;5095534;28;20024;-57
2020/12/17 13:54:33;;;;;;;10.20;9.38;;;;;;;;;;5077252;28;20473;-57
2020/12/17 13:57:08;;;;;;;6.53;5.47;;;;;;;;;;5085018;28;20030;-57
2020/12/17 14:02:34;;;;;;;4.20;3.60;;;;;;;;;;5084901;28;20039;-57
2020/12/17 14:05:16;;;;;;;10.90;4.60;;;;;;;;;;5096086;28;20020;-57
2020/12/17 14:11:13;;;;;;;4.28;3.05;;;;;;;;;;5013780;28;20132;-57
2020/12/17 14:13:50;;;;;;;7.40;3.83;;;;;;;;;;5000897;28;20495;-57
2020/12/17 14:16:31;;;;;;;5.00;3.15;;;;;;;;;;4994240;28;20080;-57
2020/12/17 14:19:09;;;;;;;5.47;3.47;;;;;;;;;;4994042;28;20037;-58
2020/12/17 14:21:52;;;;;;;3.88;2.67;;;;;;;;;;4977491;28;20081;-58
2020/12/17 14:24:21;;;;;;;4.10;3.40;;;;;;;;;;4993329;28;20023;-58
2020/12/17 14:27:02;;;;;;;3.85;3.00;;;;;;;;;;5027116;28;20033;-57
2020/12/17 14:29:45;;;;;;;5.68;4.15;;;;;;;;;;5075004;28;20020;-58
2020/12/17 14:32:30;;;;;;;4.57;4.18;;;;;;;;;;5056010;28;20040;-57
2020/12/17 14:34:56;;;;;;;6.50;4.00;;;;;;;;;;5055884;28;20037;-57
2020/12/17 14:37:50;;;;;;;;;;;;;;;;;;;;;
2020/12/17 14:40:32;;;;;;;;;;;;;;;;;;;;;
2020/12/17 14:43:07;;;;;;;4.65;3.30;;;;;;;;;;5070239;28;20039;-58
2020/12/17 14:45:43;;;;;;;5.22;3.58;;;;;;;;;;5074873;28;20027;-57
2020/12/17 14:48:11;;;;;;;3.80;3.40;;;;;;;;;;5055170;28;20120;-58
2020/12/17 14:50:54;;;;;;;3.85;2.75;;;;;;;;;;5039940;28;20036;-58
2020/12/17 14:53:20;;;;;;;3.00;2.55;;;;;;;;;;5074823;28;20029;-58
2020/12/17 14:56:04;;;;;;;3.60;2.75;;;;;;;;;;5074460;28;20017;-58
2020/12/17 14:58:49;;;;;;;4.18;3.67;;;;;;;;;;5055233;28;20041;-57
2020/12/17 15:01:21;;;;;;;4.30;3.38;;;;;;;;;;5073945;28;20039;-58
2020/12/17 15:03:47;;;;;;;4.50;3.38;;;;;;;;;;5074858;28;20048;-58
2020/12/17 15:06:14;;;;;;;4.00;3.45;;;;;;;;;;5074274;28;20055;-57
2020/12/17 15:08:44;;;;;;;6.20;4.95;;;;;;;;;;5073956;28;20134;-58
2020/12/17 15:11:20;;;;;;;7.25;5.03;;;;;;;;;;5074060;28;20037;-56
2020/12/17 15:13:48;;;;;;;5.45;4.38;;;;;;;;;;5087504;28;20073;-57
2020/12/17 15:16:22;;;;;;;5.45;4.25;;;;;;;;;;5075533;28;20047;-57
2020/12/17 15:19:11;;;;;;;5.60;4.82;;;;;;;;;;5093889;28;20016;-57
2020/12/17 15:21:41;;;;;;;6.03;3.83;;;;;;;;;;5081507;28;20039;-58
2020/12/17 15:24:20;;;;;;;4.95;4.45;;;;;;;;;;5074075;28;20028;-58
2020/12/17 15:27:10;;;;;;;;;;;;;;;;;;;;;
2020/12/17 15:29:48;;;;;;;4.28;3.88;;;;;;;;;;5093974;28;20047;-58
2020/12/17 15:32:17;;;;;;;9.00;4.75;;;;;;;;;;5074342;28;20036;-57
2020/12/17 15:34:55;;;;;;;7.18;4.18;;;;;;;;;;5094671;28;20107;-57
2020/12/17 15:37:42;;;;;;;5.30;4.00;;;;;;;;;;5092862;28;20388;-58
2020/12/17 15:40:23;;;;;;;4.45;3.65;;;;;;;;;;5083609;28;20043;-58
2020/12/17 15:43:13;;;;;;;6.63;4.00;;;;;;;;;;5093842;28;20070;-58
2020/12/17 15:45:43;;;;;;;7.70;4.05;;;;;;;;;;5093340;28;20032;-59
2020/12/17 15:48:25;;;;;;;5.15;4.00;;;;;;;;;;5094265;28;20047;-58
2020/12/17 15:50:54;;;;;;;4.28;3.42;;;;;;;;;;5091995;28;20397;-59
2020/12/17 15:53:23;;;;;;;4.57;3.45;;;;;;;;;;5094124;28;20038;-58
2020/12/17 15:56:02;;;;;;;5.40;3.63;;;;;;;;;;5093709;28;20030;-58
2020/12/17 15:58:38;;;;;;;4.93;3.67;;;;;;;;;;5092318;28;20027;-58
2020/12/17 16:01:15;;;;;;;4.80;3.05;;;;;;;;;;5091743;28;20127;-58
2020/12/17 16:03:47;;;;;;;3.80;3.28;;;;;;;;;;5096167;28;20028;-58
2020/12/17 16:06:17;;;;;;;5.32;2.58;;;;;;;;;;5098133;28;20042;-59
2020/12/17 16:08:49;;;;;;;5.00;3.03;;;;;;;;;;5078960;28;20441;-58
2020/12/17 16:11:24;;;;;;;4.22;2.95;;;;;;;;;;5080071;28;20024;-56
2020/12/17 16:14:11;;;;;;;4.20;2.55;;;;;;;;;;5095536;28;20055;-56
2020/12/17 16:16:43;;;;;;;3.85;3.15;;;;;;;;;;5097900;28;20090;-58
2020/12/17 16:19:28;;;;;;;;;;;;;;;;;;;;;
2020/12/17 16:21:59;;;;;;;4.45;3.50;;;;;;;;;;5097219;28;20046;-58
2020/12/17 16:27:47;;;;;;;4.25;3.03;;;;;;;;;;5074631;28;20029;-58
2020/12/17 16:33:35;;;;;;;3.27;2.70;;;;;;;;;;5091095;28;20036;-58
2020/12/17 16:36:16;;;;;;;4.18;3.15;;;;;;;;;;5091784;28;20268;-59
2020/12/17 16:41:32;;;;;;;4.45;3.45;;;;;;;;;;5085518;28;20032;-59
2020/12/17 16:44:08;;;;;;;6.97;3.70;;;;;;;;;;5094940;28;20054;-58
2020/12/17 16:46:35;;;;;;;5.35;3.20;;;;;;;;;;5096228;28;20480;-58
2020/12/17 16:49:07;;;;;;;6.75;3.78;;;;;;;;;;5097699;28;20369;-59
2020/12/17 16:51:51;;;;;;;4.72;4.22;;;;;;;;;;5097498;28;20063;-58
2020/12/17 16:54:24;;;;;;;4.07;3.22;;;;;;;;;;5095614;28;20428;-58
2020/12/17 16:56:57;;;;;;;3.60;3.25;;;;;;;;;;5095946;28;20031;-59
2020/12/17 17:05:25;;;;;;;7.15;3.45;;;;;;;;;;5089088;28;20035;-59
2020/12/17 17:07:58;;;;;;;5.97;4.38;;;;;;;;;;5095794;28;20024;-59
2020/12/17 17:10:27;;;;;;;5.75;3.75;;;;;;;;;;5096672;28;20024;-57
2020/12/17 17:13:19;;;;;;;3.42;2.80;;;;;;;;;;5094483;28;20120;-58
2020/12/17 17:16:01;;;;;;;4.00;3.45;;;;;;;;;;5093548;28;20048;-59
2020/12/17 17:18:36;;;;;;;4.38;2.90;;;;;;;;;;5096005;28;20473;-56
2020/12/17 17:21:13;;;;;;;4.65;3.92;;;;;;;;;;5096483;28;20465;-56
2020/12/17 17:23:57;;;;;;;7.72;3.55;;;;;;;;;;5075681;28;20038;-56
2020/12/17 17:26:44;;;;;;;6.55;4.28;;;;;;;;;;5077637;28;20020;-56
2020/12/17 17:29:22;;;;;;;5.28;3.80;;;;;;;;;;5095916;28;20142;-53
2020/12/17 17:32:26;;;;;;;4.97;3.63;;;;;;;;;;5096684;28;20066;-55
2020/12/17 17:35:04;;;;;;;5.13;4.45;;;;;;;;;;5052034;28;20393;-56
2020/12/17 17:37:41;;;;;;;5.10;4.50;;;;;;;;;;5096468;28;20111;-54
2020/12/17 17:40:18;;;;;;;5.82;4.70;;;;;;;;;;5077046;28;20032;-55
2020/12/17 17:42:47;;;;;;;4.75;3.97;;;;;;;;;;5096145;28;20016;-52
2020/12/17 17:45:41;;;;;;;9.75;4.80;;;;;;;;;;5077888;28;20054;-54
2020/12/17 17:48:19;;;;;;;7.35;5.30;;;;;;;;;;5096341;28;20024;-56
2020/12/17 17:51:05;;;;;;;5.50;4.78;;;;;;;;;;5096083;28;20105;-55
2020/12/17 17:56:46;;;;;;;10.68;6.75;;;;;;;;;;5084757;28;20393;-56
2020/12/17 17:59:31;;;;;;;9.45;6.35;;;;;;;;;;5076668;28;20059;-59
2020/12/17 18:02:15;;;;;;;;;;;;;;;;;;;;;
2020/12/17 18:04:44;;;;;;;6.35;4.78;;;;;;;;;;5095561;28;20035;-57
2020/12/17 18:07:25;;;;;;;6.38;5.32;;;;;;;;;;5076859;28;20354;-58
2020/12/17 18:10:04;;;;;;;10.27;5.85;;;;;;;;;;5095849;28;20024;-58
2020/12/17 18:12:31;;;;;;;6.60;5.93;;;;;;;;;;5095217;28;20067;-61
2020/12/17 18:15:09;;;;;;;5.60;4.95;;;;;;;;;;5076155;28;20473;-58
2020/12/17 18:17:45;;;;;;;8.13;7.30;;;;;;;;;;5095182;28;20477;-56
2020/12/17 18:20:40;;;;;;;10.30;7.72;;;;;;;;;;5094987;28;20053;-58
2020/12/17 18:23:18;;;;;;;7.95;7.15;;;;;;;;;;5095020;28;20440;-57
2020/12/17 18:25:59;;;;;;;9.73;8.35;;;;;;;;;;5094900;28;20024;-58
2020/12/17 18:28:28;;;;;;;7.85;5.65;;;;;;;;;;5094473;28;20059;-58
2020/12/17 18:31:06;;;;;;;7.25;6.22;;;;;;;;;;5095532;28;20057;-58
2020/12/17 18:33:38;;;;;;;9.85;6.20;;;;;;;;;;5095521;28;20073;-58
2020/12/17 18:36:25;;;;;;;7.18;6.28;;;;;;;;;;5095349;28;20031;-58
2020/12/17 18:38:54;;;;;;;6.72;6.07;;;;;;;;;;5095860;28;20059;-58
2020/12/17 18:41:29;;;;;;;6.13;5.53;;;;;;;;;;5094908;28;20135;-58
2020/12/17 18:44:28;;;;;;;7.88;6.30;;;;;;;;;;5094551;28;20458;-59
2020/12/17 18:46:58;;;;;;;9.43;6.97;;;;;;;;;;5079250;28;20101;-57
2020/12/17 18:49:54;;;;;;;7.03;6.32;;;;;;;;;;5093175;28;20385;-56
2020/12/17 18:52:30;;;;;;;6.78;5.95;;;;;;;;;;5078390;28;20189;-55
2020/12/17 18:55:21;;;;;;;6.55;5.90;;;;;;;;;;5092733;28;20108;-57
2020/12/17 18:58:08;;;;;;;6.57;5.88;;;;;;;;;;5094892;28;20044;-57
2020/12/17 19:00:40;;;;;;;7.45;6.00;;;;;;;;;;5094715;28;20074;-56
2020/12/17 19:03:27;;;;;;;;;;;;;;;;;;;;;
2020/12/17 19:06:06;;;;;;;8.00;7.30;;;;;;;;;;5094310;28;20019;-57
2020/12/17 19:08:52;;;;;;;7.15;5.70;;;;;;;;;;5095087;28;20024;-57
2020/12/17 19:11:38;;;;;;;;;;;;;;;;;;;;;
2020/12/17 19:14:09;;;;;;;7.30;6.53;;;;;;;;;;5089219;28;20078;-57
2020/12/17 19:16:54;;;;;;;7.50;6.05;;;;;;;;;;5094740;28;20028;-56